Brownfield, ME (04010)

6:48 AM EST on November 26, 2014 (GMT -0500)
misty lane | Change Station
CLOSE
Current Station
Personal Weather Station
Location: Brownfield, ME
Elevation: 404 ft
Nearby Weather Stations
Active Advisory: Winter Storm Warning

Elev 404 ft 43.94 °N, 70.87 °W | Updated 1 minute ago

Mostly Cloudy
Mostly Cloudy
33.8 °F
Feels Like 34 °F
N
0.0
Wind Variable Wind from NNE
Gusts 1.0 mph

Today
High -- | Low -- °F
--% Chance of Precip.
Yesterday
High -- | Low -- °F
Precip. -- in
6:52 AM 4:09 PM
Waxing Crescent, 19% visible
Pressure 30.18 in
Visibility 10.0 miles
Clouds Clear
Windchill 34 °F
Dew Point 30 °F
Humidity 86%
Rainfall 0.00 in
Snow Depth Not available.
UV 0 out of 12
Pollen .10 out of 12
Air Quality Not available.
Flu Activity Not available.
METAR KIZG 261054Z AUTO 00000KT 10SM CLR 03/M04 A3017 RMK AO2 SLP219 T00331039

More Conditions Fewer Conditions

Pressure 30.18 in
Visibility 10.0 miles
Clouds Clear
Windchill 34 °F
Dew Point 30 °F
Humidity 86%
Rainfall 0.00 in
Snow Depth Not available.
UV 0 out of 12
Pollen .10 out of 12
Air Quality Not available.
Flu Activity Not available.
METAR KIZG 261054Z AUTO 00000KT 10SM CLR 03/M04 A3017 RMK AO2 SLP219 T00331039

More Conditions Fewer Conditions

10-Day Weather Forecast

Almanac

Astronomy

Nov. 26, 2014 Rise Set
Actual Time
Civil Twilight
Nautical Twilight
Astronomical Twilight
Moon
Length of Visible Light
Length of Day
Tomorrow will be .
, % of the Moon is Illuminated

Today's Extremes

State Highs State Lows

Community

WunderPhotos

Upload Photos

1,773,708 photos uploaded!

WunderBlogs® & News

Nearby

Air Quality

  Air Quality AQ Index Pollutant
Not available.

Snow Depth

Station Depth Elevation

Earthquake Activity

City Distance Mag. Time & Date
Minimum magnitude displayed is 2.5.

Coastal Water Temperatures

Place Temperature

Nearby Weather Stations